createdAt,value
2019-04-11T00:00:35.924Z,75.94
2019-04-11T00:01:42.072Z,76.56
2019-04-11T00:02:40.911Z,76.56
2019-04-11T00:03:35.859Z,76.86
2019-04-11T00:04:35.858Z,76.70
2019-04-11T00:05:36.985Z,76.70
2019-04-11T00:06:35.973Z,76.79
2019-04-11T00:07:36.363Z,76.79
2019-04-11T00:08:37.092Z,77.00
2019-04-11T00:09:35.789Z,77.31
2019-04-11T00:10:35.785Z,78.14
2019-04-11T00:11:35.853Z,78.03
2019-04-11T00:12:36.785Z,77.97
2019-04-11T00:13:36.505Z,78.28
2019-04-11T00:14:35.914Z,78.07
2019-04-11T00:15:36.952Z,78.17
2019-04-11T00:16:35.747Z,78.62
2019-04-11T00:17:36.302Z,77.25
2019-04-11T00:18:35.725Z,77.38
2019-04-11T00:19:35.881Z,77.25
2019-04-11T00:20:36.069Z,76.76
2019-04-11T00:21:35.672Z,77.08
2019-04-11T00:22:35.671Z,76.87
2019-04-11T00:23:36.470Z,76.04
2019-04-11T00:24:36.683Z,76.04
2019-04-11T00:25:35.918Z,76.25
2019-04-11T00:26:36.178Z,76.15
2019-04-11T00:27:35.614Z,76.46
2019-04-11T00:28:35.587Z,76.46
2019-04-11T00:29:36.587Z,76.04
2019-04-11T00:30:36.539Z,76.39
2019-04-11T00:31:35.557Z,75.53
2019-04-11T00:32:35.899Z,74.63
2019-04-11T00:33:35.543Z,75.15
2019-04-11T00:34:35.561Z,74.84
2019-04-11T00:35:35.641Z,76.49
2019-04-11T00:36:36.652Z,74.74
2019-04-11T00:37:35.489Z,74.77
2019-04-11T00:38:36.142Z,75.98
2019-04-11T00:39:35.468Z,75.91
2019-04-11T00:40:35.530Z,74.98
2019-04-11T00:41:35.463Z,75.29
2019-04-11T00:42:36.718Z,75.49
2019-04-11T00:43:39.029Z,75.81
2019-04-11T00:44:35.433Z,76.01
2019-04-11T00:45:35.934Z,76.21
2019-04-11T00:46:36.243Z,75.60
2019-04-11T00:47:35.399Z,75.29
2019-04-11T00:48:35.632Z,74.77
2019-04-11T00:49:35.376Z,74.81
2019-04-11T00:50:35.349Z,74.40
2019-04-11T00:51:36.135Z,73.57
2019-04-11T00:52:35.324Z,72.85
2019-04-11T00:53:36.163Z,72.06
2019-04-11T00:54:35.335Z,71.64
2019-04-11T00:55:35.693Z,71.02
2019-04-11T00:56:35.329Z,70.61
2019-04-11T00:57:35.274Z,70.61
2019-04-11T00:58:36.024Z,69.78
2019-04-11T00:59:35.276Z,70.30
2019-04-11T01:00:35.504Z,69.68
2019-04-11T01:01:35.706Z,69.99
2019-04-11T01:02:35.822Z,69.48
2019-04-11T01:03:35.998Z,70.12
2019-04-11T01:04:35.188Z,69.82
2019-04-11T01:05:35.172Z,69.78
2019-04-11T01:06:36.414Z,69.71
2019-04-11T01:07:35.359Z,69.61
2019-04-11T01:08:35.678Z,69.51
2019-04-11T01:09:35.141Z,69.92
2019-04-11T01:10:35.228Z,69.51
2019-04-11T01:11:36.388Z,69.51
2019-04-11T01:12:35.151Z,68.68
2019-04-11T01:13:44.577Z,69.40
2019-04-11T01:14:37.251Z,68.88
2019-04-11T01:15:35.079Z,69.20
2019-04-11T01:16:35.066Z,69.61
2019-04-11T01:17:35.054Z,69.51
2019-04-11T01:18:36.110Z,69.64
2019-04-11T01:19:35.172Z,69.30
2019-04-11T01:20:35.536Z,69.82
2019-04-11T01:21:35.009Z,69.30
2019-04-11T01:22:35.118Z,70.06
2019-04-11T01:23:35.364Z,70.03
2019-04-11T01:24:35.614Z,70.43
2019-04-11T01:25:34.995Z,70.03
2019-04-11T01:26:35.102Z,69.51
2019-04-11T01:27:36.173Z,69.82
2019-04-11T01:28:34.924Z,69.51
2019-04-11T01:29:35.654Z,69.09
2019-04-11T01:30:34.940Z,69.30
2019-04-11T01:31:35.899Z,69.71
2019-04-11T01:32:34.889Z,69.74
2019-04-11T01:33:35.845Z,69.85
2019-04-11T01:34:35.015Z,69.54
2019-04-11T01:35:34.844Z,68.71
2019-04-11T01:36:35.352Z,69.02
2019-04-11T01:37:35.595Z,69.54
2019-04-11T01:38:34.825Z,69.23
2019-04-11T01:39:35.117Z,69.12
2019-04-11T01:40:35.938Z,69.12
2019-04-11T01:41:34.773Z,69.23
2019-04-11T01:42:35.599Z,68.92
2019-04-11T01:43:35.716Z,68.68
2019-04-11T01:44:34.756Z,68.61
2019-04-11T01:45:35.827Z,68.40
2019-04-11T01:46:34.736Z,68.71
2019-04-11T01:47:35.880Z,69.16
2019-04-11T01:48:35.414Z,68.85
2019-04-11T01:49:34.710Z,68.92
2019-04-11T01:50:34.975Z,68.92
2019-04-11T01:51:35.809Z,68.40
2019-04-11T01:52:34.701Z,68.71
2019-04-11T01:53:35.233Z,68.61
2019-04-11T01:54:35.472Z,68.64
2019-04-11T01:55:34.837Z,68.64
2019-04-11T01:56:34.614Z,68.43
2019-04-11T01:57:34.599Z,68.85
2019-04-11T01:58:35.097Z,68.33
2019-04-11T01:59:35.440Z,68.95
2019-04-11T02:00:34.582Z,68.12
2019-04-11T02:01:34.832Z,68.74
2019-04-11T02:02:34.756Z,68.85
2019-04-11T02:03:35.061Z,68.23
2019-04-11T02:04:34.527Z,68.43
2019-04-11T02:05:35.055Z,68.74
2019-04-11T02:06:34.509Z,69.60
2019-04-11T02:07:34.493Z,69.06
2019-04-11T02:08:35.527Z,68.54
2019-04-11T02:09:34.470Z,69.16
2019-04-11T02:10:34.976Z,69.26
2019-04-11T02:11:34.452Z,69.29
2019-04-11T02:12:35.264Z,69.09
2019-04-11T02:13:34.425Z,68.57
2019-04-11T02:14:35.439Z,69.37
2019-04-11T02:15:34.573Z,69.47
2019-04-11T02:16:34.868Z,69.16
2019-04-11T02:17:34.919Z,68.64
2019-04-11T02:18:35.214Z,69.47
2019-04-11T02:19:34.528Z,68.88
2019-04-11T02:20:34.355Z,68.98
2019-04-11T02:21:34.331Z,69.19
2019-04-11T02:22:34.740Z,69.40
2019-04-11T02:23:35.096Z,69.40
2019-04-11T02:24:34.322Z,69.50
2019-04-11T02:25:34.496Z,69.60
2019-04-11T02:26:35.535Z,70.12
2019-04-11T02:27:34.817Z,69.60
2019-04-11T02:28:34.920Z,69.60
2019-04-11T02:29:35.364Z,70.12
2019-04-11T02:30:36.208Z,69.60
2019-04-11T02:31:34.951Z,70.15
2019-04-11T02:32:35.001Z,69.84
2019-04-11T02:33:34.869Z,70.26
2019-04-11T02:34:35.222Z,70.64
2019-04-11T02:35:35.347Z,70.95
2019-04-11T02:36:35.716Z,71.26
2019-04-11T02:37:34.560Z,71.88
2019-04-11T02:38:34.774Z,71.88
2019-04-11T02:39:35.588Z,72.60
2019-04-11T02:40:34.121Z,71.26
2019-04-11T02:41:35.895Z,71.15
2019-04-11T02:42:35.094Z,71.05
2019-04-11T02:43:34.969Z,71.05
2019-04-11T02:44:53.214Z,71.15
2019-04-11T02:45:49.692Z,71.39
2019-04-11T02:46:43.445Z,70.98
2019-04-11T02:47:37.379Z,71.39
2019-04-11T02:48:35.523Z,70.98
2019-04-11T02:49:35.222Z,70.87
2019-04-11T02:50:34.941Z,71.39
2019-04-11T02:51:34.568Z,71.29
2019-04-11T02:52:35.394Z,71.91
2019-04-11T02:53:34.443Z,72.12
2019-04-11T02:54:34.295Z,71.91
2019-04-11T02:55:35.643Z,72.53
2019-04-11T02:56:35.740Z,71.39
2019-04-11T02:57:34.386Z,72.05
2019-04-11T02:58:34.633Z,71.53
2019-04-11T02:59:34.532Z,70.91
2019-04-11T03:00:35.948Z,71.43
2019-04-11T03:01:34.729Z,71.01
2019-04-11T03:02:34.721Z,70.91
2019-04-11T03:03:34.194Z,70.70
2019-04-11T03:04:34.732Z,70.29
2019-04-11T03:05:35.172Z,71.01
2019-04-11T03:06:35.395Z,71.33
2019-04-11T03:07:34.159Z,71.22
2019-04-11T03:08:36.140Z,71.63
2019-04-11T03:09:35.265Z,70.81
2019-04-11T03:10:35.503Z,71.12
2019-04-11T03:11:34.632Z,71.53
2019-04-11T03:12:35.582Z,70.81
2019-04-11T03:13:35.338Z,70.50
2019-04-11T03:14:54.396Z,70.91
2019-04-11T03:15:53.605Z,70.39
2019-04-11T03:16:46.473Z,70.18
2019-04-11T03:17:40.354Z,69.67
2019-04-11T03:18:52.934Z,69.46
2019-04-11T03:19:49.219Z,69.98
2019-04-11T03:20:43.564Z,69.90
2019-04-11T03:21:39.244Z,69.90
2019-04-11T03:22:34.987Z,70.29
2019-04-11T03:23:35.417Z,69.56
2019-04-11T03:24:35.774Z,70.08
2019-04-11T03:25:33.905Z,70.81
2019-04-11T03:26:35.436Z,70.50
2019-04-11T03:27:34.935Z,70.70
2019-04-11T03:28:35.886Z,70.70
2019-04-11T03:29:35.616Z,69.87
2019-04-11T03:30:48.810Z,69.46
2019-04-11T03:32:14.004Z,69.25
2019-04-11T03:33:27.735Z,69.56
2019-04-11T03:36:21.171Z,69.87
2019-04-11T03:37:13.598Z,69.98
2019-04-11T03:37:58.682Z,70.29
2019-04-11T03:38:55.139Z,69.67
2019-04-11T03:39:57.410Z,69.67
2019-04-11T03:40:54.725Z,69.25
2019-04-11T03:41:52.371Z,69.15
2019-04-11T03:42:46.339Z,69.87
2019-04-11T03:43:46.259Z,69.25
2019-04-11T03:44:40.200Z,69.67
2019-04-11T03:45:56.262Z,70.50
2019-04-11T03:46:49.212Z,70.18
2019-04-11T03:47:45.847Z,69.77
2019-04-11T03:48:49.640Z,69.67
2019-04-11T03:49:44.183Z,70.39
2019-04-11T03:50:36.727Z,70.18
2019-04-11T03:51:34.032Z,70.08
2019-04-11T03:52:34.743Z,69.98
2019-04-11T03:53:34.388Z,69.04
2019-04-11T03:54:34.239Z,70.08
2019-04-11T03:55:34.870Z,70.39
2019-04-11T03:56:34.915Z,70.50
2019-04-11T03:57:34.264Z,70.70
2019-04-11T03:58:33.596Z,69.98
2019-04-11T03:59:34.259Z,70.18
2019-04-11T04:00:36.251Z,70.60
2019-04-11T04:01:34.943Z,70.81
2019-04-11T04:02:34.719Z,69.87
2019-04-11T04:03:34.230Z,69.87
2019-04-11T04:04:35.079Z,69.77
2019-04-11T04:05:36.287Z,69.77
2019-04-11T04:06:41.506Z,70.60
2019-04-11T04:07:33.948Z,70.81
2019-04-11T04:08:34.247Z,70.29
2019-04-11T04:09:33.149Z,69.98
2019-04-11T04:10:34.069Z,70.29
2019-04-11T04:11:34.639Z,70.60
2019-04-11T04:12:33.617Z,70.50
2019-04-11T04:13:34.437Z,70.63
2019-04-11T04:14:34.588Z,70.08
2019-04-11T04:15:44.335Z,70.18
2019-04-11T04:16:40.763Z,69.87
2019-04-11T04:17:35.203Z,70.81
2019-04-11T04:18:34.115Z,70.70
2019-04-11T04:19:33.050Z,70.39
2019-04-11T04:20:33.159Z,69.67
2019-04-11T04:21:33.305Z,69.98
2019-04-11T04:22:32.981Z,70.08
2019-04-11T04:23:33.658Z,69.70
2019-04-11T04:24:38.812Z,70.21
2019-04-11T04:25:34.719Z,69.80
2019-04-11T04:26:33.721Z,69.70
2019-04-11T04:27:34.601Z,70.01
2019-04-11T04:28:33.866Z,69.42
2019-04-11T04:29:36.255Z,69.80
2019-04-11T04:30:33.660Z,70.42
2019-04-11T04:31:32.980Z,70.46
2019-04-11T04:32:33.079Z,69.84
2019-04-11T04:33:35.418Z,70.21
2019-04-11T04:34:33.870Z,70.15
2019-04-11T04:35:33.835Z,70.56
2019-04-11T04:36:33.393Z,69.63
2019-04-11T04:37:34.622Z,69.42
2019-04-11T04:38:33.784Z,70.25
2019-04-11T04:39:34.330Z,69.94
2019-04-11T04:40:49.600Z,70.25
2019-04-11T04:41:42.829Z,69.84
2019-04-11T04:42:40.210Z,70.56
2019-04-11T04:43:34.759Z,70.25
2019-04-11T04:44:33.421Z,70.36
2019-04-11T04:45:54.095Z,69.94
2019-04-11T04:46:51.835Z,70.25
2019-04-11T04:47:42.342Z,69.63
2019-04-11T04:48:34.545Z,70.67
2019-04-11T04:49:34.326Z,70.36
2019-04-11T04:50:34.216Z,70.97
2019-04-11T04:51:32.684Z,70.25
2019-04-11T04:52:33.982Z,70.59
2019-04-11T04:53:33.678Z,70.04
2019-04-11T04:54:33.427Z,70.36
2019-04-11T04:55:32.746Z,70.97
2019-04-11T04:56:34.776Z,71.08
2019-04-11T04:57:33.904Z,70.36
2019-04-11T04:58:33.917Z,70.15
2019-04-11T04:59:34.023Z,71.08
2019-04-11T05:00:32.578Z,71.18
2019-04-11T05:01:32.576Z,70.97
2019-04-11T05:02:33.145Z,70.67
2019-04-11T05:03:34.131Z,70.67
2019-04-11T05:04:33.734Z,70.87
2019-04-11T05:05:33.814Z,70.15
2019-04-11T05:06:32.556Z,70.56
2019-04-11T05:07:37.888Z,70.87
2019-04-11T05:08:34.735Z,70.25
2019-04-11T05:09:33.906Z,70.97
2019-04-11T05:10:32.804Z,70.87
2019-04-11T05:11:33.840Z,70.97
2019-04-11T05:12:32.441Z,71.49
2019-04-11T05:13:32.994Z,71.08
2019-04-11T05:14:32.408Z,70.97
2019-04-11T05:15:32.508Z,71.08
2019-04-11T05:16:33.380Z,71.39
2019-04-11T05:17:32.594Z,71.39
2019-04-11T05:18:32.376Z,71.49
2019-04-11T05:19:32.352Z,71.18
2019-04-11T05:20:32.337Z,70.67
2019-04-11T05:21:33.109Z,70.67
2019-04-11T05:22:33.187Z,70.04
2019-04-11T05:23:32.312Z,70.11
2019-04-11T05:24:32.309Z,70.32
2019-04-11T05:25:32.739Z,70.32
2019-04-11T05:26:33.306Z,69.90
2019-04-11T05:27:33.260Z,70.73
2019-04-11T05:28:32.248Z,70.21
2019-04-11T05:29:33.304Z,70.94
2019-04-11T05:30:33.274Z,70.53
2019-04-11T05:31:32.350Z,70.32
2019-04-11T05:32:33.374Z,70.73
2019-04-11T05:33:32.188Z,70.21
2019-04-11T05:34:32.987Z,70.42
2019-04-11T05:35:33.000Z,70.15
2019-04-11T05:36:32.369Z,70.97
2019-04-11T05:37:33.265Z,71.08
2019-04-11T05:38:32.783Z,70.84
2019-04-11T05:39:32.131Z,71.04
2019-04-11T05:40:32.487Z,70.63
2019-04-11T05:41:33.467Z,70.42
2019-04-11T05:42:33.320Z,70.25
2019-04-11T05:43:37.339Z,70.04
2019-04-11T05:44:35.293Z,70.04
2019-04-11T05:45:32.071Z,70.76
2019-04-11T05:46:40.861Z,70.67
2019-04-11T05:47:33.079Z,71.39
2019-04-11T05:48:32.053Z,70.97
2019-04-11T05:49:36.611Z,70.76
2019-04-11T05:50:34.088Z,71.18
2019-04-11T05:51:39.207Z,70.87
2019-04-11T05:52:34.182Z,70.97
2019-04-11T05:53:33.562Z,70.97
2019-04-11T05:54:41.826Z,70.87
2019-04-11T05:55:34.136Z,70.36
2019-04-11T05:56:31.936Z,70.67
2019-04-11T05:57:36.736Z,70.76
2019-04-11T05:58:32.956Z,71.70
2019-04-11T05:59:32.734Z,72.11
2019-04-11T06:00:32.597Z,70.25
2019-04-11T06:01:31.873Z,70.42
2019-04-11T06:02:33.109Z,70.63
2019-04-11T06:03:32.315Z,71.36
2019-04-11T06:04:32.368Z,70.63
2019-04-11T06:05:33.383Z,70.53
2019-04-11T06:06:36.114Z,70.32
2019-04-11T06:07:32.837Z,70.53
2019-04-11T06:08:32.321Z,70.11
2019-04-11T06:09:36.032Z,70.94
2019-04-11T06:10:33.799Z,70.94
2019-04-11T06:11:31.766Z,70.70
2019-04-11T06:12:31.821Z,70.32
2019-04-11T06:13:32.210Z,69.90
2019-04-11T06:14:31.733Z,69.90
2019-04-11T06:15:31.751Z,70.08
2019-04-11T06:16:44.919Z,70.60
2019-04-11T06:17:32.794Z,69.25
2019-04-11T06:18:36.139Z,69.77
2019-04-11T06:19:33.459Z,69.77
2019-04-11T06:20:31.693Z,69.77
2019-04-11T06:21:31.771Z,70.39
2019-04-11T06:22:31.857Z,69.25
2019-04-11T06:23:31.815Z,69.98
2019-04-11T06:24:32.169Z,69.35
2019-04-11T06:25:33.268Z,69.87
2019-04-11T06:26:32.392Z,70.29
2019-04-11T06:27:33.671Z,69.98
2019-04-11T06:28:31.704Z,70.60
2019-04-11T06:29:31.638Z,70.18
2019-04-11T06:30:32.648Z,70.50
2019-04-11T06:31:31.799Z,69.98
2019-04-11T06:32:31.939Z,69.98
2019-04-11T06:33:32.188Z,69.77
2019-04-11T06:34:31.635Z,68.84
2019-04-11T06:35:32.357Z,69.67
2019-04-11T06:36:32.047Z,69.56
2019-04-11T06:37:31.918Z,69.77
2019-04-11T06:38:32.446Z,69.67
2019-04-11T06:39:31.531Z,71.01
2019-04-11T06:40:32.598Z,69.25
2019-04-11T06:41:32.663Z,70.81
2019-04-11T06:42:31.905Z,70.29
2019-04-11T06:43:32.110Z,70.36
2019-04-11T06:44:32.094Z,69.22
2019-04-11T06:45:31.504Z,69.64
2019-04-11T06:46:31.453Z,69.12
2019-04-11T06:47:32.550Z,69.53
2019-04-11T06:48:31.793Z,68.70
2019-04-11T06:49:31.358Z,68.80
2019-04-11T06:50:31.364Z,69.22
2019-04-11T06:51:32.442Z,69.84
2019-04-11T06:52:31.308Z,69.22
2019-04-11T06:53:32.177Z,68.77
2019-04-11T06:54:31.319Z,69.22
2019-04-11T06:55:31.275Z,70.01
2019-04-11T06:56:31.269Z,69.37
2019-04-11T06:57:32.103Z,68.64
2019-04-11T06:58:31.868Z,69.16
2019-04-11T06:59:32.293Z,68.85
2019-04-11T07:00:31.470Z,69.50
2019-04-11T07:01:31.270Z,68.88
2019-04-11T07:02:32.184Z,68.74
2019-04-11T07:03:32.420Z,68.02
2019-04-11T07:04:31.174Z,68.26
2019-04-11T07:05:31.164Z,68.12
2019-04-11T07:06:31.478Z,68.67
2019-04-11T07:07:32.783Z,68.67
2019-04-11T07:08:32.113Z,69.29
2019-04-11T07:09:31.146Z,69.40
2019-04-11T07:10:31.106Z,69.88
2019-04-11T07:11:31.962Z,70.16
2019-04-11T07:12:31.084Z,67.88
2019-04-11T07:13:31.081Z,67.82
2019-04-11T07:14:31.252Z,67.50
2019-04-11T07:15:31.548Z,68.64
2019-04-11T07:16:31.039Z,69.26
2019-04-11T07:17:31.773Z,68.23
2019-04-11T07:18:31.264Z,68.30
2019-04-11T07:19:31.068Z,67.61
2019-04-11T07:20:31.415Z,68.19
2019-04-11T07:21:31.081Z,68.64
2019-04-11T07:22:30.987Z,66.88
2019-04-11T07:23:30.966Z,67.61
2019-04-11T07:24:30.962Z,68.85
2019-04-11T07:25:31.111Z,68.74
2019-04-11T07:26:30.970Z,68.74
2019-04-11T07:27:30.949Z,67.88
2019-04-11T07:28:31.491Z,67.99
2019-04-11T07:29:31.533Z,68.61
2019-04-11T07:30:31.097Z,67.65
2019-04-11T07:31:31.987Z,66.82
2019-04-11T07:32:30.903Z,67.34
2019-04-11T07:33:31.248Z,69.09
2019-04-11T07:34:33.126Z,67.54
2019-04-11T07:35:30.843Z,67.03
2019-04-11T07:36:31.645Z,68.27
2019-04-11T07:37:30.814Z,67.06
2019-04-11T07:38:32.042Z,66.85
2019-04-11T07:39:31.149Z,67.37
2019-04-11T07:40:31.468Z,68.40
2019-04-11T07:41:31.856Z,67.06
2019-04-11T07:42:33.454Z,68.30
2019-04-11T07:43:31.274Z,68.16
2019-04-11T07:44:32.163Z,68.51
2019-04-11T07:45:30.815Z,67.54
2019-04-11T07:46:30.829Z,66.82
2019-04-11T07:47:30.711Z,66.51
2019-04-11T07:48:30.707Z,66.93
2019-04-11T07:49:30.776Z,67.37
2019-04-11T07:50:31.186Z,67.47
2019-04-11T07:51:30.708Z,68.92
2019-04-11T07:52:32.946Z,69.09
2019-04-11T07:53:33.477Z,67.75
2019-04-11T07:54:30.643Z,68.88
2019-04-11T07:55:30.666Z,69.09
2019-04-11T07:56:30.635Z,68.58
2019-04-11T07:57:30.743Z,67.82
2019-04-11T07:58:30.876Z,67.82
2019-04-11T07:59:31.590Z,71.23
2019-04-11T08:00:38.576Z,69.06
2019-04-11T08:01:31.701Z,67.00
2019-04-11T08:02:31.308Z,67.00
2019-04-11T08:03:30.607Z,66.79
2019-04-11T08:04:30.511Z,66.93
2019-04-11T08:05:30.525Z,66.93
2019-04-11T08:06:31.070Z,67.75
2019-04-11T08:07:30.524Z,67.44
2019-04-11T08:08:30.513Z,68.13
2019-04-11T08:09:31.237Z,67.41
2019-04-11T08:10:30.440Z,66.89
2019-04-11T08:11:31.660Z,67.48
2019-04-11T08:12:31.694Z,66.97
2019-04-11T08:13:30.472Z,68.00
2019-04-11T08:14:30.802Z,66.86
2019-04-11T08:15:31.480Z,67.07
2019-04-11T08:16:30.842Z,67.03
2019-04-11T08:17:36.804Z,66.42
2019-04-11T08:18:31.390Z,66.31
2019-04-11T08:19:31.074Z,67.03
2019-04-11T08:20:31.200Z,66.52
2019-04-11T08:21:32.875Z,65.39
2019-04-11T08:22:30.700Z,65.52
2019-04-11T08:23:30.330Z,67.03
2019-04-11T08:24:30.310Z,66.73
2019-04-11T08:25:31.432Z,65.39
2019-04-11T08:26:30.886Z,65.39
2019-04-11T08:27:30.270Z,65.52
2019-04-11T08:28:30.996Z,65.42
2019-04-11T08:29:30.567Z,66.42
2019-04-11T08:30:30.867Z,65.11
2019-04-11T08:31:30.734Z,67.17
2019-04-11T08:32:30.239Z,66.86
2019-04-11T08:33:30.913Z,66.66
2019-04-11T08:34:31.151Z,66.97
2019-04-11T08:35:30.414Z,66.76
2019-04-11T08:36:30.177Z,66.76
2019-04-11T08:37:30.162Z,66.73
2019-04-11T08:38:30.143Z,66.94
2019-04-11T08:39:31.198Z,66.63
2019-04-11T08:40:30.123Z,66.83
2019-04-11T08:41:30.144Z,67.83
2019-04-11T08:42:30.115Z,67.11
2019-04-11T08:43:31.144Z,67.11
2019-04-11T08:44:30.140Z,66.80
2019-04-11T08:45:30.054Z,65.05
2019-04-11T08:46:30.924Z,66.70
2019-04-11T08:47:41.568Z,65.46
2019-04-11T08:48:31.064Z,67.00
2019-04-11T08:49:31.698Z,66.80
2019-04-11T08:50:30.329Z,66.28
2019-04-11T08:51:29.990Z,65.33
2019-04-11T08:52:29.997Z,65.53
2019-04-11T08:53:30.883Z,65.43
2019-04-11T08:54:29.974Z,65.74
2019-04-11T08:55:43.022Z,65.43
2019-04-11T08:56:31.351Z,65.84
2019-04-11T08:57:29.933Z,65.56
2019-04-11T08:58:30.947Z,66.70
2019-04-11T08:59:30.196Z,66.49
2019-04-11T09:00:31.285Z,66.39
2019-04-11T09:01:29.923Z,66.28
2019-04-11T09:02:31.061Z,66.28
2019-04-11T09:03:29.856Z,65.88
2019-04-11T09:04:30.198Z,67.00
2019-04-11T09:05:31.187Z,66.49
2019-04-11T09:06:30.588Z,66.80
2019-04-11T09:07:29.804Z,66.08
2019-04-11T09:08:30.098Z,66.39
2019-04-11T09:09:29.860Z,67.11
2019-04-11T09:10:29.809Z,65.84
2019-04-11T09:11:30.831Z,66.36
2019-04-11T09:12:30.834Z,66.46
2019-04-11T09:13:29.736Z,66.46
2019-04-11T09:14:30.514Z,66.77
2019-04-11T09:15:29.723Z,66.74
2019-04-11T09:16:29.866Z,66.02
2019-04-11T09:17:30.336Z,65.30
2019-04-11T09:18:30.261Z,65.30
2019-04-11T09:19:30.628Z,65.68
2019-04-11T09:20:29.890Z,65.37
2019-04-11T09:21:30.409Z,65.37
2019-04-11T09:22:29.678Z,65.26
2019-04-11T09:23:30.030Z,65.37
2019-04-11T09:24:30.487Z,64.65
2019-04-11T09:25:30.501Z,66.71
2019-04-11T09:26:29.787Z,64.14
2019-04-11T09:27:30.969Z,64.34
2019-04-11T09:28:29.594Z,64.68
2019-04-11T09:29:30.427Z,65.26
2019-04-11T09:30:30.564Z,65.58
2019-04-11T09:31:29.685Z,65.37
2019-04-11T09:32:29.560Z,64.65
2019-04-11T09:33:29.518Z,64.54
2019-04-11T09:34:30.176Z,63.82
2019-04-11T09:35:29.552Z,63.52
2019-04-11T09:36:30.598Z,63.82
2019-04-11T09:37:29.637Z,65.30
2019-04-11T09:38:30.531Z,65.37
2019-04-11T09:39:29.462Z,65.26
2019-04-11T09:40:29.909Z,65.16
2019-04-11T09:41:30.187Z,65.13
2019-04-11T09:42:30.355Z,63.59
2019-04-11T09:43:29.406Z,63.56
2019-04-11T09:44:29.407Z,63.76
2019-04-11T09:45:29.813Z,63.15
2019-04-11T09:46:30.291Z,64.48
2019-04-11T09:47:30.462Z,64.07
2019-04-11T09:48:29.473Z,63.05
2019-04-11T09:49:29.342Z,63.05
2019-04-11T09:50:29.420Z,64.59
2019-04-11T09:51:29.612Z,64.18
2019-04-11T09:52:29.327Z,64.39
2019-04-11T09:53:30.296Z,63.76
2019-04-11T09:54:30.293Z,65.11
2019-04-11T09:55:29.299Z,63.43
2019-04-11T09:56:29.309Z,62.71
2019-04-11T09:57:29.266Z,63.32
2019-04-11T09:58:29.519Z,62.92
2019-04-11T09:59:29.494Z,62.53
2019-04-11T10:00:30.439Z,63.02
2019-04-11T10:01:29.284Z,62.19
2019-04-11T10:02:29.195Z,62.33
2019-04-11T10:03:29.206Z,62.63
2019-04-11T10:04:29.771Z,63.15
2019-04-11T10:05:30.016Z,63.76
2019-04-11T10:06:30.188Z,63.64
2019-04-11T10:07:30.112Z,63.02
2019-04-11T10:08:29.136Z,62.40
2019-04-11T10:09:30.242Z,63.46
2019-04-11T10:10:29.165Z,62.71
2019-04-11T10:11:30.261Z,62.40
2019-04-11T10:12:29.713Z,61.88
2019-04-11T10:13:29.074Z,63.35
2019-04-11T10:14:29.478Z,63.02
2019-04-11T10:15:29.705Z,64.46
2019-04-11T10:16:29.103Z,62.27
2019-04-11T10:17:29.690Z,63.20
2019-04-11T10:18:33.719Z,62.58
2019-04-11T10:19:30.025Z,63.17
2019-04-11T10:20:29.004Z,62.75
2019-04-11T10:21:29.071Z,62.75
2019-04-11T10:22:29.218Z,62.24
2019-04-11T10:23:29.239Z,62.55
2019-04-11T10:24:30.425Z,62.78
2019-04-11T10:25:30.206Z,62.16
2019-04-11T10:26:28.943Z,61.96
2019-04-11T10:27:28.959Z,62.48
2019-04-11T10:28:29.489Z,63.06
2019-04-11T10:29:30.424Z,63.17
2019-04-11T10:30:29.373Z,61.72
2019-04-11T10:31:28.875Z,61.72
2019-04-11T10:32:28.905Z,62.85
2019-04-11T10:33:28.979Z,61.90
2019-04-11T10:34:29.915Z,61.57
2019-04-11T10:35:28.836Z,61.16
2019-04-11T10:36:29.473Z,61.46
2019-04-11T10:37:28.832Z,61.36
2019-04-11T10:38:28.840Z,60.85
2019-04-11T10:39:29.173Z,60.44
2019-04-11T10:40:28.776Z,61.18
2019-04-11T10:41:28.768Z,61.90
2019-04-11T10:42:28.784Z,61.18
2019-04-11T10:43:28.762Z,62.39
2019-04-11T10:44:29.811Z,60.75
2019-04-11T10:45:28.889Z,60.85
2019-04-11T10:46:28.757Z,61.46
2019-04-11T10:47:29.196Z,61.05
2019-04-11T10:48:35.612Z,60.75
2019-04-11T10:49:30.394Z,61.23
2019-04-11T10:50:28.686Z,61.95
2019-04-11T10:51:29.571Z,61.02
2019-04-11T10:52:28.799Z,60.92
2019-04-11T10:53:28.640Z,60.92
2019-04-11T10:54:29.676Z,60.41
2019-04-11T10:55:29.399Z,60.61
2019-04-11T10:56:28.614Z,60.54
2019-04-11T10:57:29.829Z,61.67
2019-04-11T10:58:28.873Z,61.74
2019-04-11T10:59:28.586Z,65.20
2019-04-11T11:00:29.382Z,60.72
2019-04-11T11:01:29.460Z,60.95
2019-04-11T11:02:43.440Z,61.26
2019-04-11T11:03:29.077Z,61.26
2019-04-11T11:04:28.644Z,62.90
2019-04-11T11:05:28.497Z,62.87
2019-04-11T11:06:29.576Z,61.13
2019-04-11T11:07:28.706Z,61.00
2019-04-11T11:08:29.143Z,61.30
2019-04-11T11:09:28.485Z,60.25
2019-04-11T11:10:28.436Z,60.97
2019-04-11T11:11:28.436Z,60.66
2019-04-11T11:12:29.633Z,61.00
2019-04-11T11:13:28.457Z,61.79
2019-04-11T11:14:28.987Z,61.18
2019-04-11T11:15:28.405Z,61.10
2019-04-11T11:16:30.558Z,61.82
2019-04-11T11:17:48.255Z,62.12
2019-04-11T11:18:49.106Z,61.61
2019-04-11T11:19:45.566Z,61.41
2019-04-11T11:20:34.714Z,60.89
2019-04-11T11:21:33.257Z,61.82
2019-04-11T11:22:33.150Z,61.41
2019-04-11T11:23:29.334Z,60.89
2019-04-11T11:24:28.330Z,61.71
2019-04-11T11:25:28.291Z,61.85
2019-04-11T11:26:29.369Z,62.33
2019-04-11T11:27:28.306Z,61.69
2019-04-11T11:28:28.244Z,60.63
2019-04-11T11:29:28.933Z,61.25
2019-04-11T11:30:29.251Z,61.55
2019-04-11T11:31:28.240Z,61.01
2019-04-11T11:32:29.375Z,61.11
2019-04-11T11:33:28.192Z,60.47
2019-04-11T11:34:28.459Z,60.27
2019-04-11T11:35:32.067Z,59.73
2019-04-11T11:36:32.090Z,59.66
2019-04-11T11:37:29.191Z,60.71
2019-04-11T11:38:28.229Z,60.27
2019-04-11T11:39:28.118Z,59.96
2019-04-11T11:40:28.127Z,59.07
2019-04-11T11:41:28.127Z,60.60
2019-04-11T11:42:28.270Z,61.15
2019-04-11T11:43:28.143Z,61.22
2019-04-11T11:44:28.656Z,60.91
2019-04-11T11:45:28.055Z,60.58
2019-04-11T11:46:30.969Z,60.37
2019-04-11T11:47:28.033Z,60.99
2019-04-11T11:48:28.104Z,60.37
2019-04-11T11:49:42.449Z,60.78
2019-04-11T11:50:31.496Z,60.88
2019-04-11T11:51:29.617Z,60.99
2019-04-11T11:52:31.908Z,59.35
2019-04-11T11:53:29.964Z,60.78
2019-04-11T11:54:29.280Z,61.77
2019-04-11T11:55:27.953Z,61.67
2019-04-11T11:56:27.975Z,60.11
2019-04-11T11:57:28.821Z,59.57
2019-04-11T11:58:27.978Z,60.46
2019-04-11T11:59:30.192Z,59.23
2019-04-11T12:00:29.262Z,59.11
2019-04-11T12:01:27.898Z,59.62
2019-04-11T12:02:28.576Z,57.07
2019-04-11T12:03:29.937Z,56.96
2019-04-11T12:04:27.869Z,56.76
2019-04-11T12:05:29.408Z,56.25
2019-04-11T12:06:29.190Z,57.27
2019-04-11T12:07:28.638Z,57.57
2019-04-11T12:08:28.676Z,59.52
2019-04-11T12:09:28.741Z,56.15
2019-04-11T12:10:28.093Z,56.99
2019-04-11T12:11:28.329Z,57.50
2019-04-11T12:12:27.870Z,57.29
2019-04-11T12:13:28.339Z,57.50
2019-04-11T12:14:27.774Z,59.03
2019-04-11T12:15:28.835Z,56.89
2019-04-11T12:16:28.008Z,57.70
2019-04-11T12:17:31.765Z,58.93
2019-04-11T12:18:28.691Z,57.84
2019-04-11T12:19:28.889Z,58.14
2019-04-11T12:20:27.663Z,58.04
2019-04-11T12:21:28.498Z,58.86
2019-04-11T12:22:28.480Z,58.86
2019-04-11T12:23:27.672Z,57.93
2019-04-11T12:24:27.894Z,57.84
2019-04-11T12:25:27.606Z,57.02
2019-04-11T12:26:30.465Z,57.02
2019-04-11T12:27:28.881Z,57.63
2019-04-11T12:28:27.735Z,57.32
2019-04-11T12:29:30.121Z,57.53
2019-04-11T12:30:30.590Z,57.53
2019-04-11T12:31:31.187Z,58.75
2019-04-11T12:32:28.446Z,59.09
2019-04-11T12:33:27.757Z,58.98
2019-04-11T12:34:27.501Z,59.98
2019-04-11T12:35:28.822Z,58.86
2019-04-11T12:36:28.456Z,58.52
2019-04-11T12:37:27.566Z,59.00
2019-04-11T12:38:27.513Z,58.19
2019-04-11T12:39:28.788Z,56.86
2019-04-11T12:40:27.501Z,56.02
2019-04-11T12:41:27.475Z,56.94
2019-04-11T12:42:27.462Z,57.14
2019-04-11T12:43:27.391Z,55.91
2019-04-11T12:44:29.482Z,56.43
2019-04-11T12:45:27.371Z,55.84
2019-04-11T12:46:29.956Z,57.29
2019-04-11T12:47:27.380Z,57.50
2019-04-11T12:48:27.404Z,56.89
2019-04-11T12:49:27.351Z,57.53
2019-04-11T12:50:27.316Z,57.50
2019-04-11T12:51:27.345Z,58.42
2019-04-11T12:52:27.499Z,59.14
2019-04-11T12:53:27.334Z,58.19
2019-04-11T12:54:27.330Z,57.40